sensor_id;sensor_type;location;lat;lon;timestamp;P1;durP1;ratioP1;P2;durP2;ratioP2
10801;SDS011;5453;50.852;7.102;2022-09-27T00:01:56;6.82;;;2.00;;
10801;SDS011;5453;50.852;7.102;2022-09-27T00:04:28;5.25;;;2.40;;
10801;SDS011;5453;50.852;7.102;2022-09-27T00:07:00;2.50;;;1.85;;
10801;SDS011;5453;50.852;7.102;2022-09-27T00:09:33;2.97;;;1.60;;
10801;SDS011;5453;50.852;7.102;2022-09-27T00:12:07;4.05;;;1.67;;
10801;SDS011;5453;50.852;7.102;2022-09-27T00:14:40;3.45;;;1.73;;
10801;SDS011;5453;50.852;7.102;2022-09-27T00:17:12;3.10;;;1.58;;
10801;SDS011;5453;50.852;7.102;2022-09-27T00:19:44;3.08;;;1.40;;
10801;SDS011;5453;50.852;7.102;2022-09-27T00:22:16;3.33;;;1.55;;
10801;SDS011;5453;50.852;7.102;2022-09-27T00:24:48;5.43;;;1.58;;
10801;SDS011;5453;50.852;7.102;2022-09-27T00:27:22;3.75;;;1.75;;
10801;SDS011;5453;50.852;7.102;2022-09-27T00:29:56;4.10;;;1.40;;
10801;SDS011;5453;50.852;7.102;2022-09-27T00:32:28;1.75;;;1.20;;
10801;SDS011;5453;50.852;7.102;2022-09-27T00:35:00;2.67;;;1.13;;
10801;SDS011;5453;50.852;7.102;2022-09-27T00:37:32;1.85;;;1.08;;
10801;SDS011;5453;50.852;7.102;2022-09-27T00:40:05;4.75;;;1.45;;
10801;SDS011;5453;50.852;7.102;2022-09-27T00:42:39;2.85;;;1.77;;
10801;SDS011;5453;50.852;7.102;2022-09-27T00:45:12;1.55;;;1.10;;
10801;SDS011;5453;50.852;7.102;2022-09-27T00:47:49;4.32;;;1.00;;
10801;SDS011;5453;50.852;7.102;2022-09-27T00:50:27;3.83;;;1.30;;
10801;SDS011;5453;50.852;7.102;2022-09-27T00:53:07;2.05;;;1.08;;
10801;SDS011;5453;50.852;7.102;2022-09-27T00:55:45;3.60;;;1.40;;
10801;SDS011;5453;50.852;7.102;2022-09-27T00:58:26;4.50;;;1.15;;
10801;SDS011;5453;50.852;7.102;2022-09-27T01:01:04;5.00;;;1.33;;
10801;SDS011;5453;50.852;7.102;2022-09-27T01:03:42;3.30;;;1.65;;
10801;SDS011;5453;50.852;7.102;2022-09-27T01:06:22;2.83;;;1.55;;
10801;SDS011;5453;50.852;7.102;2022-09-27T01:08:54;3.70;;;1.50;;
10801;SDS011;5453;50.852;7.102;2022-09-27T01:11:37;2.70;;;1.20;;
10801;SDS011;5453;50.852;7.102;2022-09-27T01:14:27;2.67;;;1.30;;
10801;SDS011;5453;50.852;7.102;2022-09-27T01:17:22;3.00;;;1.35;;
10801;SDS011;5453;50.852;7.102;2022-09-27T01:20:20;3.17;;;1.67;;
10801;SDS011;5453;50.852;7.102;2022-09-27T01:23:18;2.90;;;1.70;;
10801;SDS011;5453;50.852;7.102;2022-09-27T01:26:12;4.30;;;1.73;;
10801;SDS011;5453;50.852;7.102;2022-09-27T01:28:56;3.40;;;1.15;;
10801;SDS011;5453;50.852;7.102;2022-09-27T01:31:38;2.47;;;1.30;;
10801;SDS011;5453;50.852;7.102;2022-09-27T01:34:19;4.95;;;1.10;;
10801;SDS011;5453;50.852;7.102;2022-09-27T01:37:00;2.65;;;1.13;;
10801;SDS011;5453;50.852;7.102;2022-09-27T01:39:43;2.03;;;0.98;;
10801;SDS011;5453;50.852;7.102;2022-09-27T01:42:34;2.00;;;0.70;;
10801;SDS011;5453;50.852;7.102;2022-09-27T01:45:16;1.48;;;0.80;;
10801;SDS011;5453;50.852;7.102;2022-09-27T01:48:16;2.15;;;0.80;;
10801;SDS011;5453;50.852;7.102;2022-09-27T01:50:56;2.45;;;1.15;;
10801;SDS011;5453;50.852;7.102;2022-09-27T01:53:34;2.83;;;1.10;;
10801;SDS011;5453;50.852;7.102;2022-09-27T01:56:32;3.78;;;1.30;;
10801;SDS011;5453;50.852;7.102;2022-09-27T01:59:15;2.08;;;1.10;;
10801;SDS011;5453;50.852;7.102;2022-09-27T02:02:03;1.90;;;1.10;;
10801;SDS011;5453;50.852;7.102;2022-09-27T02:05:03;2.83;;;1.52;;
10801;SDS011;5453;50.852;7.102;2022-09-27T02:07:41;2.55;;;1.45;;
10801;SDS011;5453;50.852;7.102;2022-09-27T02:10:20;1.38;;;1.23;;
10801;SDS011;5453;50.852;7.102;2022-09-27T02:13:01;4.47;;;1.70;;
10801;SDS011;5453;50.852;7.102;2022-09-27T02:15:40;2.85;;;1.70;;
10801;SDS011;5453;50.852;7.102;2022-09-27T02:18:39;2.88;;;1.73;;
10801;SDS011;5453;50.852;7.102;2022-09-27T02:21:22;3.08;;;1.60;;
10801;SDS011;5453;50.852;7.102;2022-09-27T02:24:02;3.65;;;1.80;;
10801;SDS011;5453;50.852;7.102;2022-09-27T02:26:41;3.70;;;1.80;;
10801;SDS011;5453;50.852;7.102;2022-09-27T02:29:17;6.35;;;1.80;;
10801;SDS011;5453;50.852;7.102;2022-09-27T02:31:57;4.30;;;1.65;;
10801;SDS011;5453;50.852;7.102;2022-09-27T02:34:30;6.55;;;1.88;;
10801;SDS011;5453;50.852;7.102;2022-09-27T02:37:08;4.25;;;1.70;;
10801;SDS011;5453;50.852;7.102;2022-09-27T02:39:41;4.75;;;1.90;;
10801;SDS011;5453;50.852;7.102;2022-09-27T02:42:14;3.70;;;1.52;;
10801;SDS011;5453;50.852;7.102;2022-09-27T02:44:46;5.07;;;1.83;;
10801;SDS011;5453;50.852;7.102;2022-09-27T02:47:23;3.03;;;1.75;;
10801;SDS011;5453;50.852;7.102;2022-09-27T02:50:14;2.00;;;1.50;;
10801;SDS011;5453;50.852;7.102;2022-09-27T02:53:36;3.40;;;1.55;;
10801;SDS011;5453;50.852;7.102;2022-09-27T02:56:40;2.42;;;1.70;;
10801;SDS011;5453;50.852;7.102;2022-09-27T02:59:42;3.13;;;1.60;;
10801;SDS011;5453;50.852;7.102;2022-09-27T03:02:35;3.47;;;1.58;;
10801;SDS011;5453;50.852;7.102;2022-09-27T03:05:42;3.38;;;1.40;;
10801;SDS011;5453;50.852;7.102;2022-09-27T03:08:20;3.92;;;1.48;;
10801;SDS011;5453;50.852;7.102;2022-09-27T03:10:54;3.33;;;1.30;;
10801;SDS011;5453;50.852;7.102;2022-09-27T03:13:26;3.65;;;1.40;;
10801;SDS011;5453;50.852;7.102;2022-09-27T03:16:00;4.30;;;1.30;;
10801;SDS011;5453;50.852;7.102;2022-09-27T03:19:08;4.18;;;1.55;;
10801;SDS011;5453;50.852;7.102;2022-09-27T03:22:04;3.28;;;1.40;;
10801;SDS011;5453;50.852;7.102;2022-09-27T03:24:36;4.35;;;1.50;;
10801;SDS011;5453;50.852;7.102;2022-09-27T03:27:10;2.95;;;1.50;;
10801;SDS011;5453;50.852;7.102;2022-09-27T03:29:42;1.48;;;1.33;;
10801;SDS011;5453;50.852;7.102;2022-09-27T03:32:15;3.28;;;1.58;;
10801;SDS011;5453;50.852;7.102;2022-09-27T03:35:06;6.40;;;2.00;;
10801;SDS011;5453;50.852;7.102;2022-09-27T03:37:39;2.70;;;1.42;;
10801;SDS011;5453;50.852;7.102;2022-09-27T03:40:11;3.53;;;1.58;;
10801;SDS011;5453;50.852;7.102;2022-09-27T03:42:45;4.97;;;1.52;;
10801;SDS011;5453;50.852;7.102;2022-09-27T03:45:19;1.75;;;1.33;;
10801;SDS011;5453;50.852;7.102;2022-09-27T03:47:51;3.17;;;1.50;;
10801;SDS011;5453;50.852;7.102;2022-09-27T03:50:24;2.00;;;1.40;;
10801;SDS011;5453;50.852;7.102;2022-09-27T03:52:56;2.22;;;1.10;;
10801;SDS011;5453;50.852;7.102;2022-09-27T03:55:28;4.60;;;1.27;;
10801;SDS011;5453;50.852;7.102;2022-09-27T03:58:02;1.45;;;1.02;;
10801;SDS011;5453;50.852;7.102;2022-09-27T04:03:08;3.05;;;1.15;;
10801;SDS011;5453;50.852;7.102;2022-09-27T04:05:42;3.47;;;1.20;;
10801;SDS011;5453;50.852;7.102;2022-09-27T04:08:20;2.65;;;1.40;;
10801;SDS011;5453;50.852;7.102;2022-09-27T04:10:54;2.50;;;1.20;;
10801;SDS011;5453;50.852;7.102;2022-09-27T04:13:27;3.53;;;1.80;;
10801;SDS011;5453;50.852;7.102;2022-09-27T04:16:00;2.85;;;1.67;;
10801;SDS011;5453;50.852;7.102;2022-09-27T04:18:45;1.85;;;1.35;;
10801;SDS011;5453;50.852;7.102;2022-09-27T04:21:37;2.47;;;1.50;;
10801;SDS011;5453;50.852;7.102;2022-09-27T04:24:11;3.08;;;1.33;;
10801;SDS011;5453;50.852;7.102;2022-09-27T04:26:52;3.75;;;1.85;;
10801;SDS011;5453;50.852;7.102;2022-09-27T04:29:29;2.83;;;1.40;;
10801;SDS011;5453;50.852;7.102;2022-09-27T04:32:07;2.97;;;1.45;;
10801;SDS011;5453;50.852;7.102;2022-09-27T04:34:59;1.92;;;1.30;;
10801;SDS011;5453;50.852;7.102;2022-09-27T04:37:49;3.05;;;1.48;;
10801;SDS011;5453;50.852;7.102;2022-09-27T04:40:22;1.67;;;1.30;;
10801;SDS011;5453;50.852;7.102;2022-09-27T04:42:54;2.70;;;1.30;;
10801;SDS011;5453;50.852;7.102;2022-09-27T04:45:28;1.42;;;0.98;;
10801;SDS011;5453;50.852;7.102;2022-09-27T04:48:01;1.10;;;0.93;;
10801;SDS011;5453;50.852;7.102;2022-09-27T04:50:37;3.58;;;1.23;;
10801;SDS011;5453;50.852;7.102;2022-09-27T04:53:11;1.80;;;1.13;;
10801;SDS011;5453;50.852;7.102;2022-09-27T04:55:44;1.75;;;1.10;;
10801;SDS011;5453;50.852;7.102;2022-09-27T04:58:18;3.58;;;1.10;;
10801;SDS011;5453;50.852;7.102;2022-09-27T05:00:51;3.08;;;1.20;;
10801;SDS011;5453;50.852;7.102;2022-09-27T05:04:03;1.77;;;1.15;;
10801;SDS011;5453;50.852;7.102;2022-09-27T05:06:37;2.42;;;1.20;;
10801;SDS011;5453;50.852;7.102;2022-09-27T05:09:20;4.22;;;1.60;;
10801;SDS011;5453;50.852;7.102;2022-09-27T05:11:54;2.80;;;1.52;;
10801;SDS011;5453;50.852;7.102;2022-09-27T05:14:44;2.83;;;1.30;;
10801;SDS011;5453;50.852;7.102;2022-09-27T05:17:21;2.63;;;1.50;;
10801;SDS011;5453;50.852;7.102;2022-09-27T05:19:59;1.67;;;1.23;;
10801;SDS011;5453;50.852;7.102;2022-09-27T05:22:54;2.50;;;1.30;;
10801;SDS011;5453;50.852;7.102;2022-09-27T05:25:27;1.55;;;1.33;;
10801;SDS011;5453;50.852;7.102;2022-09-27T05:28:00;3.08;;;1.73;;
10801;SDS011;5453;50.852;7.102;2022-09-27T05:30:33;2.55;;;1.60;;
10801;SDS011;5453;50.852;7.102;2022-09-27T05:33:16;2.20;;;1.48;;
10801;SDS011;5453;50.852;7.102;2022-09-27T05:35:51;2.58;;;1.40;;
10801;SDS011;5453;50.852;7.102;2022-09-27T05:38:27;3.58;;;1.67;;
10801;SDS011;5453;50.852;7.102;2022-09-27T05:41:01;1.30;;;1.20;;
10801;SDS011;5453;50.852;7.102;2022-09-27T05:43:34;2.78;;;1.40;;
10801;SDS011;5453;50.852;7.102;2022-09-27T05:46:06;3.28;;;1.15;;
10801;SDS011;5453;50.852;7.102;2022-09-27T05:48:43;3.53;;;1.60;;
10801;SDS011;5453;50.852;7.102;2022-09-27T05:51:15;2.00;;;1.45;;
10801;SDS011;5453;50.852;7.102;2022-09-27T05:53:50;3.13;;;1.30;;
10801;SDS011;5453;50.852;7.102;2022-09-27T05:56:29;2.42;;;1.45;;
10801;SDS011;5453;50.852;7.102;2022-09-27T05:59:16;2.20;;;1.35;;
10801;SDS011;5453;50.852;7.102;2022-09-27T06:02:09;3.33;;;1.23;;
10801;SDS011;5453;50.852;7.102;2022-09-27T06:05:18;3.65;;;1.27;;
10801;SDS011;5453;50.852;7.102;2022-09-27T06:08:11;2.85;;;1.10;;
10801;SDS011;5453;50.852;7.102;2022-09-27T06:10:48;3.25;;;1.50;;
10801;SDS011;5453;50.852;7.102;2022-09-27T06:13:22;2.60;;;1.52;;
10801;SDS011;5453;50.852;7.102;2022-09-27T06:15:55;2.55;;;1.15;;
10801;SDS011;5453;50.852;7.102;2022-09-27T06:18:28;3.00;;;1.75;;
10801;SDS011;5453;50.852;7.102;2022-09-27T06:21:02;2.10;;;1.30;;
10801;SDS011;5453;50.852;7.102;2022-09-27T06:23:38;2.55;;;1.23;;
10801;SDS011;5453;50.852;7.102;2022-09-27T06:26:18;2.63;;;1.30;;
10801;SDS011;5453;50.852;7.102;2022-09-27T06:29:14;2.22;;;1.45;;
10801;SDS011;5453;50.852;7.102;2022-09-27T06:31:59;2.78;;;1.55;;
10801;SDS011;5453;50.852;7.102;2022-09-27T06:34:57;1.45;;;1.17;;
10801;SDS011;5453;50.852;7.102;2022-09-27T06:37:31;3.00;;;1.33;;
10801;SDS011;5453;50.852;7.102;2022-09-27T06:40:04;4.10;;;1.38;;
10801;SDS011;5453;50.852;7.102;2022-09-27T06:43:00;2.88;;;2.00;;
10801;SDS011;5453;50.852;7.102;2022-09-27T06:46:06;3.22;;;1.50;;
10801;SDS011;5453;50.852;7.102;2022-09-27T06:49:16;3.63;;;1.75;;
10801;SDS011;5453;50.852;7.102;2022-09-27T06:51:50;3.63;;;1.83;;
10801;SDS011;5453;50.852;7.102;2022-09-27T06:54:27;2.53;;;1.50;;
10801;SDS011;5453;50.852;7.102;2022-09-27T06:56:59;2.30;;;1.38;;
10801;SDS011;5453;50.852;7.102;2022-09-27T06:59:32;1.60;;;1.20;;
10801;SDS011;5453;50.852;7.102;2022-09-27T07:02:45;2.55;;;1.20;;
10801;SDS011;5453;50.852;7.102;2022-09-27T07:05:35;1.70;;;0.95;;
10801;SDS011;5453;50.852;7.102;2022-09-27T07:08:32;4.97;;;1.30;;
10801;SDS011;5453;50.852;7.102;2022-09-27T07:11:06;4.15;;;1.48;;
10801;SDS011;5453;50.852;7.102;2022-09-27T07:13:38;2.10;;;1.08;;
10801;SDS011;5453;50.852;7.102;2022-09-27T07:16:12;2.15;;;1.10;;
10801;SDS011;5453;50.852;7.102;2022-09-27T07:18:46;2.33;;;1.20;;
10801;SDS011;5453;50.852;7.102;2022-09-27T07:21:20;2.45;;;1.20;;
10801;SDS011;5453;50.852;7.102;2022-09-27T07:23:52;2.50;;;1.17;;
10801;SDS011;5453;50.852;7.102;2022-09-27T07:26:27;2.65;;;1.40;;
10801;SDS011;5453;50.852;7.102;2022-09-27T07:28:59;1.25;;;1.00;;
10801;SDS011;5453;50.852;7.102;2022-09-27T07:31:33;1.58;;;0.90;;
10801;SDS011;5453;50.852;7.102;2022-09-27T07:34:05;1.27;;;0.90;;
10801;SDS011;5453;50.852;7.102;2022-09-27T07:36:38;1.85;;;1.10;;
10801;SDS011;5453;50.852;7.102;2022-09-27T07:39:11;2.08;;;1.00;;
10801;SDS011;5453;50.852;7.102;2022-09-27T07:41:45;1.63;;;0.88;;
10801;SDS011;5453;50.852;7.102;2022-09-27T07:44:17;2.25;;;0.80;;
10801;SDS011;5453;50.852;7.102;2022-09-27T07:47:07;1.30;;;0.80;;
10801;SDS011;5453;50.852;7.102;2022-09-27T07:50:12;3.03;;;0.80;;
10801;SDS011;5453;50.852;7.102;2022-09-27T07:53:14;1.48;;;0.70;;
10801;SDS011;5453;50.852;7.102;2022-09-27T07:55:54;1.27;;;0.88;;
10801;SDS011;5453;50.852;7.102;2022-09-27T07:58:30;1.58;;;0.90;;
10801;SDS011;5453;50.852;7.102;2022-09-27T08:01:05;1.45;;;0.93;;
10801;SDS011;5453;50.852;7.102;2022-09-27T08:03:37;2.00;;;0.93;;
10801;SDS011;5453;50.852;7.102;2022-09-27T08:06:09;1.52;;;1.10;;
10801;SDS011;5453;50.852;7.102;2022-09-27T08:08:42;0.88;;;0.85;;
10801;SDS011;5453;50.852;7.102;2022-09-27T08:11:16;2.63;;;1.02;;
10801;SDS011;5453;50.852;7.102;2022-09-27T08:13:54;1.35;;;1.20;;
10801;SDS011;5453;50.852;7.102;2022-09-27T08:16:32;0.80;;;0.65;;
10801;SDS011;5453;50.852;7.102;2022-09-27T08:19:23;1.00;;;0.90;;
10801;SDS011;5453;50.852;7.102;2022-09-27T08:22:07;1.52;;;0.70;;
10801;SDS011;5453;50.852;7.102;2022-09-27T08:24:53;1.42;;;0.80;;
10801;SDS011;5453;50.852;7.102;2022-09-27T08:27:43;2.00;;;0.90;;
10801;SDS011;5453;50.852;7.102;2022-09-27T08:30:39;1.00;;;0.90;;
10801;SDS011;5453;50.852;7.102;2022-09-27T08:33:11;1.33;;;0.80;;
10801;SDS011;5453;50.852;7.102;2022-09-27T08:35:45;0.80;;;0.80;;
10801;SDS011;5453;50.852;7.102;2022-09-27T08:38:17;0.90;;;0.90;;
10801;SDS011;5453;50.852;7.102;2022-09-27T08:40:51;2.08;;;1.00;;
10801;SDS011;5453;50.852;7.102;2022-09-27T08:43:30;1.35;;;0.90;;
10801;SDS011;5453;50.852;7.102;2022-09-27T08:46:12;1.08;;;0.93;;
10801;SDS011;5453;50.852;7.102;2022-09-27T08:49:01;2.08;;;0.80;;
10801;SDS011;5453;50.852;7.102;2022-09-27T08:51:40;0.88;;;0.80;;
10801;SDS011;5453;50.852;7.102;2022-09-27T08:54:16;1.52;;;1.10;;
10801;SDS011;5453;50.852;7.102;2022-09-27T08:56:52;1.55;;;1.02;;
10801;SDS011;5453;50.852;7.102;2022-09-27T08:59:33;1.25;;;1.15;;
10801;SDS011;5453;50.852;7.102;2022-09-27T09:02:17;0.93;;;0.82;;
10801;SDS011;5453;50.852;7.102;2022-09-27T09:04:56;2.05;;;0.90;;
10801;SDS011;5453;50.852;7.102;2022-09-27T09:07:39;0.85;;;0.82;;
10801;SDS011;5453;50.852;7.102;2022-09-27T09:10:29;0.75;;;0.75;;
10801;SDS011;5453;50.852;7.102;2022-09-27T09:13:42;2.63;;;1.00;;
10801;SDS011;5453;50.852;7.102;2022-09-27T09:16:40;1.25;;;0.90;;
10801;SDS011;5453;50.852;7.102;2022-09-27T09:19:31;0.85;;;0.80;;
10801;SDS011;5453;50.852;7.102;2022-09-27T09:22:43;0.85;;;0.80;;
10801;SDS011;5453;50.852;7.102;2022-09-27T09:25:36;1.30;;;1.17;;
10801;SDS011;5453;50.852;7.102;2022-09-27T09:28:20;1.30;;;1.10;;
10801;SDS011;5453;50.852;7.102;2022-09-27T09:31:06;1.15;;;1.02;;
10801;SDS011;5453;50.852;7.102;2022-09-27T09:33:45;1.20;;;0.80;;
10801;SDS011;5453;50.852;7.102;2022-09-27T09:36:26;1.20;;;0.80;;
10801;SDS011;5453;50.852;7.102;2022-09-27T09:39:03;2.00;;;1.20;;
10801;SDS011;5453;50.852;7.102;2022-09-27T09:41:46;0.95;;;0.80;;
10801;SDS011;5453;50.852;7.102;2022-09-27T09:44:37;0.90;;;0.90;;
10801;SDS011;5453;50.852;7.102;2022-09-27T09:47:20;1.15;;;0.70;;
10801;SDS011;5453;50.852;7.102;2022-09-27T09:50:02;2.28;;;0.68;;
10801;SDS011;5453;50.852;7.102;2022-09-27T09:52:40;1.88;;;0.82;;
10801;SDS011;5453;50.852;7.102;2022-09-27T09:55:18;0.80;;;0.80;;
10801;SDS011;5453;50.852;7.102;2022-09-27T09:57:58;0.85;;;0.75;;
10801;SDS011;5453;50.852;7.102;2022-09-27T10:00:47;1.40;;;1.05;;
10801;SDS011;5453;50.852;7.102;2022-09-27T10:03:23;15.30;;;1.77;;
10801;SDS011;5453;50.852;7.102;2022-09-27T10:05:55;18.10;;;2.00;;
10801;SDS011;5453;50.852;7.102;2022-09-27T10:08:29;7.00;;;1.30;;
10801;SDS011;5453;50.852;7.102;2022-09-27T10:11:23;7.97;;;1.33;;
10801;SDS011;5453;50.852;7.102;2022-09-27T10:14:17;2.45;;;1.13;;
10801;SDS011;5453;50.852;7.102;2022-09-27T10:16:54;5.10;;;1.65;;
10801;SDS011;5453;50.852;7.102;2022-09-27T10:19:30;1.00;;;0.80;;
10801;SDS011;5453;50.852;7.102;2022-09-27T10:22:10;1.98;;;1.08;;
10801;SDS011;5453;50.852;7.102;2022-09-27T10:24:54;1.40;;;0.93;;
10801;SDS011;5453;50.852;7.102;2022-09-27T10:27:49;1.52;;;1.02;;
10801;SDS011;5453;50.852;7.102;2022-09-27T10:30:29;2.25;;;1.10;;
10801;SDS011;5453;50.852;7.102;2022-09-27T10:33:13;5.32;;;3.83;;
10801;SDS011;5453;50.852;7.102;2022-09-27T10:35:50;6.40;;;4.63;;
10801;SDS011;5453;50.852;7.102;2022-09-27T10:38:33;5.97;;;3.72;;
10801;SDS011;5453;50.852;7.102;2022-09-27T10:41:31;4.18;;;2.67;;
10801;SDS011;5453;50.852;7.102;2022-09-27T10:44:22;1.95;;;1.40;;
10801;SDS011;5453;50.852;7.102;2022-09-27T10:47:24;1.45;;;1.30;;
10801;SDS011;5453;50.852;7.102;2022-09-27T10:50:28;2.03;;;1.65;;
10801;SDS011;5453;50.852;7.102;2022-09-27T10:53:11;2.72;;;1.20;;
10801;SDS011;5453;50.852;7.102;2022-09-27T10:55:49;1.05;;;0.93;;
10801;SDS011;5453;50.852;7.102;2022-09-27T10:58:25;2.63;;;1.02;;
10801;SDS011;5453;50.852;7.102;2022-09-27T11:01:01;2.03;;;1.15;;
10801;SDS011;5453;50.852;7.102;2022-09-27T11:03:47;1.00;;;0.93;;
10801;SDS011;5453;50.852;7.102;2022-09-27T11:06:28;1.02;;;0.93;;
10801;SDS011;5453;50.852;7.102;2022-09-27T11:09:18;3.80;;;1.17;;
10801;SDS011;5453;50.852;7.102;2022-09-27T11:12:07;2.03;;;0.98;;
10801;SDS011;5453;50.852;7.102;2022-09-27T11:14:43;1.48;;;0.85;;
10801;SDS011;5453;50.852;7.102;2022-09-27T11:17:25;3.10;;;1.00;;
10801;SDS011;5453;50.852;7.102;2022-09-27T11:20:23;1.00;;;0.90;;
10801;SDS011;5453;50.852;7.102;2022-09-27T11:23:15;2.53;;;1.00;;
10801;SDS011;5453;50.852;7.102;2022-09-27T11:28:50;1.27;;;1.17;;
10801;SDS011;5453;50.852;7.102;2022-09-27T11:32:02;1.80;;;1.15;;
10801;SDS011;5453;50.852;7.102;2022-09-27T11:35:01;1.20;;;1.00;;
10801;SDS011;5453;50.852;7.102;2022-09-27T11:37:59;1.25;;;0.85;;
10801;SDS011;5453;50.852;7.102;2022-09-27T11:40:53;2.42;;;1.30;;
10801;SDS011;5453;50.852;7.102;2022-09-27T11:43:53;1.58;;;1.25;;
10801;SDS011;5453;50.852;7.102;2022-09-27T11:46:38;2.13;;;1.27;;
10801;SDS011;5453;50.852;7.102;2022-09-27T11:52:46;3.13;;;1.33;;
10801;SDS011;5453;50.852;7.102;2022-09-27T11:55:38;2.25;;;1.13;;
10801;SDS011;5453;50.852;7.102;2022-09-27T11:58:20;2.53;;;1.40;;
10801;SDS011;5453;50.852;7.102;2022-09-27T12:01:11;2.42;;;1.25;;
10801;SDS011;5453;50.852;7.102;2022-09-27T12:06:57;1.38;;;1.20;;
10801;SDS011;5453;50.852;7.102;2022-09-27T12:09:36;3.17;;;1.40;;
10801;SDS011;5453;50.852;7.102;2022-09-27T12:12:15;1.95;;;1.30;;
10801;SDS011;5453;50.852;7.102;2022-09-27T12:14:53;1.48;;;1.38;;
10801;SDS011;5453;50.852;7.102;2022-09-27T12:17:31;1.38;;;1.05;;
10801;SDS011;5453;50.852;7.102;2022-09-27T12:20:09;2.10;;;1.23;;
10801;SDS011;5453;50.852;7.102;2022-09-27T12:22:54;3.05;;;1.40;;
10801;SDS011;5453;50.852;7.102;2022-09-27T12:25:43;1.25;;;1.15;;
10801;SDS011;5453;50.852;7.102;2022-09-27T12:28:28;2.30;;;1.20;;
10801;SDS011;5453;50.852;7.102;2022-09-27T12:31:12;1.83;;;1.05;;
10801;SDS011;5453;50.852;7.102;2022-09-27T12:33:52;2.33;;;1.30;;
10801;SDS011;5453;50.852;7.102;2022-09-27T12:36:34;4.00;;;1.10;;
10801;SDS011;5453;50.852;7.102;2022-09-27T12:39:16;1.55;;;1.10;;
10801;SDS011;5453;50.852;7.102;2022-09-27T12:41:58;1.40;;;1.23;;
10801;SDS011;5453;50.852;7.102;2022-09-27T12:44:45;1.40;;;1.13;;
10801;SDS011;5453;50.852;7.102;2022-09-27T12:47:22;2.58;;;1.50;;
10801;SDS011;5453;50.852;7.102;2022-09-27T12:50:21;2.55;;;1.50;;
10801;SDS011;5453;50.852;7.102;2022-09-27T12:53:01;2.05;;;1.45;;
10801;SDS011;5453;50.852;7.102;2022-09-27T12:55:46;2.83;;;1.40;;
10801;SDS011;5453;50.852;7.102;2022-09-27T12:58:51;2.33;;;1.38;;
10801;SDS011;5453;50.852;7.102;2022-09-27T13:01:52;1.52;;;1.17;;
10801;SDS011;5453;50.852;7.102;2022-09-27T13:04:59;1.55;;;1.27;;
10801;SDS011;5453;50.852;7.102;2022-09-27T13:08:08;1.48;;;1.25;;
10801;SDS011;5453;50.852;7.102;2022-09-27T13:11:07;1.92;;;1.30;;
10801;SDS011;5453;50.852;7.102;2022-09-27T13:13:46;1.83;;;1.27;;
10801;SDS011;5453;50.852;7.102;2022-09-27T13:16:19;1.80;;;1.00;;
10801;SDS011;5453;50.852;7.102;2022-09-27T13:18:55;2.35;;;1.88;;
10801;SDS011;5453;50.852;7.102;2022-09-27T13:24:40;3.10;;;0.95;;
10801;SDS011;5453;50.852;7.102;2022-09-27T13:27:35;0.82;;;0.70;;
10801;SDS011;5453;50.852;7.102;2022-09-27T13:33:38;1.75;;;0.98;;
10801;SDS011;5453;50.852;7.102;2022-09-27T13:36:20;2.55;;;1.42;;
10801;SDS011;5453;50.852;7.102;2022-09-27T13:39:16;4.07;;;1.40;;
10801;SDS011;5453;50.852;7.102;2022-09-27T13:42:31;1.42;;;0.80;;
10801;SDS011;5453;50.852;7.102;2022-09-27T13:45:19;1.50;;;0.60;;
10801;SDS011;5453;50.852;7.102;2022-09-27T13:47:56;2.08;;;0.90;;
10801;SDS011;5453;50.852;7.102;2022-09-27T13:50:38;0.98;;;0.80;;
10801;SDS011;5453;50.852;7.102;2022-09-27T13:53:22;4.10;;;1.20;;
10801;SDS011;5453;50.852;7.102;2022-09-27T13:56:00;0.68;;;0.60;;
10801;SDS011;5453;50.852;7.102;2022-09-27T13:58:46;0.98;;;0.63;;
10801;SDS011;5453;50.852;7.102;2022-09-27T14:01:54;0.90;;;0.40;;
10801;SDS011;5453;50.852;7.102;2022-09-27T14:04:40;2.28;;;0.60;;
10801;SDS011;5453;50.852;7.102;2022-09-27T14:07:18;0.47;;;0.32;;
10801;SDS011;5453;50.852;7.102;2022-09-27T14:09:55;1.15;;;0.40;;
10801;SDS011;5453;50.852;7.102;2022-09-27T14:12:32;3.13;;;0.82;;
10801;SDS011;5453;50.852;7.102;2022-09-27T14:15:16;1.05;;;0.50;;
10801;SDS011;5453;50.852;7.102;2022-09-27T14:17:53;0.47;;;0.47;;
10801;SDS011;5453;50.852;7.102;2022-09-27T14:20:34;0.82;;;0.50;;
10801;SDS011;5453;50.852;7.102;2022-09-27T14:23:12;0.77;;;0.50;;
10801;SDS011;5453;50.852;7.102;2022-09-27T14:25:49;2.33;;;0.60;;
10801;SDS011;5453;50.852;7.102;2022-09-27T14:28:25;1.25;;;0.50;;
10801;SDS011;5453;50.852;7.102;2022-09-27T14:31:14;3.83;;;0.90;;
10801;SDS011;5453;50.852;7.102;2022-09-27T14:34:20;3.95;;;0.88;;
10801;SDS011;5453;50.852;7.102;2022-09-27T14:36:53;2.55;;;0.70;;
10801;SDS011;5453;50.852;7.102;2022-09-27T14:40:00;1.73;;;0.60;;
10801;SDS011;5453;50.852;7.102;2022-09-27T14:42:38;2.40;;;0.70;;
10801;SDS011;5453;50.852;7.102;2022-09-27T14:45:14;4.00;;;0.85;;
10801;SDS011;5453;50.852;7.102;2022-09-27T14:47:53;2.03;;;0.68;;
10801;SDS011;5453;50.852;7.102;2022-09-27T14:50:28;0.85;;;0.50;;
10801;SDS011;5453;50.852;7.102;2022-09-27T14:55:49;2.85;;;0.57;;
10801;SDS011;5453;50.852;7.102;2022-09-27T14:58:23;1.90;;;0.77;;
10801;SDS011;5453;50.852;7.102;2022-09-27T15:00:57;2.53;;;0.80;;
10801;SDS011;5453;50.852;7.102;2022-09-27T15:03:31;3.72;;;0.88;;
10801;SDS011;5453;50.852;7.102;2022-09-27T15:06:06;2.70;;;0.70;;
10801;SDS011;5453;50.852;7.102;2022-09-27T15:08:40;1.65;;;0.57;;
10801;SDS011;5453;50.852;7.102;2022-09-27T15:11:16;3.22;;;0.65;;
10801;SDS011;5453;50.852;7.102;2022-09-27T15:13:50;1.00;;;0.43;;
10801;SDS011;5453;50.852;7.102;2022-09-27T15:16:24;6.05;;;1.33;;
10801;SDS011;5453;50.852;7.102;2022-09-27T15:19:01;3.90;;;0.70;;
10801;SDS011;5453;50.852;7.102;2022-09-27T15:21:41;3.28;;;0.68;;
10801;SDS011;5453;50.852;7.102;2022-09-27T15:27:12;1.33;;;0.47;;
10801;SDS011;5453;50.852;7.102;2022-09-27T15:29:46;1.42;;;0.65;;
10801;SDS011;5453;50.852;7.102;2022-09-27T15:32:20;2.60;;;0.68;;
10801;SDS011;5453;50.852;7.102;2022-09-27T15:34:55;1.98;;;0.90;;
10801;SDS011;5453;50.852;7.102;2022-09-27T15:37:37;4.50;;;0.77;;
10801;SDS011;5453;50.852;7.102;2022-09-27T15:43:29;1.25;;;0.80;;
10801;SDS011;5453;50.852;7.102;2022-09-27T15:46:06;2.80;;;0.77;;
10801;SDS011;5453;50.852;7.102;2022-09-27T15:52:04;1.98;;;0.70;;
10801;SDS011;5453;50.852;7.102;2022-09-27T15:54:36;1.02;;;0.70;;
10801;SDS011;5453;50.852;7.102;2022-09-27T15:57:08;1.20;;;0.70;;
10801;SDS011;5453;50.852;7.102;2022-09-27T15:59:42;2.97;;;0.75;;
10801;SDS011;5453;50.852;7.102;2022-09-27T16:02:15;1.42;;;0.70;;
10801;SDS011;5453;50.852;7.102;2022-09-27T16:04:48;0.63;;;0.60;;
10801;SDS011;5453;50.852;7.102;2022-09-27T16:07:22;0.40;;;0.40;;
10801;SDS011;5453;50.852;7.102;2022-09-27T16:09:54;2.65;;;0.82;;
10801;SDS011;5453;50.852;7.102;2022-09-27T16:12:26;1.08;;;0.70;;
10801;SDS011;5453;50.852;7.102;2022-09-27T16:15:00;6.10;;;2.00;;
10801;SDS011;5453;50.852;7.102;2022-09-27T16:17:32;5.38;;;1.60;;
10801;SDS011;5453;50.852;7.102;2022-09-27T16:20:09;5.40;;;1.60;;
10801;SDS011;5453;50.852;7.102;2022-09-27T16:22:52;2.88;;;1.13;;
10801;SDS011;5453;50.852;7.102;2022-09-27T16:25:25;1.58;;;0.90;;
10801;SDS011;5453;50.852;7.102;2022-09-27T16:27:57;0.82;;;0.80;;
10801;SDS011;5453;50.852;7.102;2022-09-27T16:30:31;1.75;;;0.93;;
10801;SDS011;5453;50.852;7.102;2022-09-27T16:33:03;0.80;;;0.75;;
10801;SDS011;5453;50.852;7.102;2022-09-27T16:35:37;1.70;;;0.70;;
10801;SDS011;5453;50.852;7.102;2022-09-27T16:38:12;1.95;;;1.00;;
10801;SDS011;5453;50.852;7.102;2022-09-27T16:40:44;1.50;;;1.13;;
10801;SDS011;5453;50.852;7.102;2022-09-27T16:43:16;1.27;;;0.90;;
10801;SDS011;5453;50.852;7.102;2022-09-27T16:45:49;1.15;;;1.00;;
10801;SDS011;5453;50.852;7.102;2022-09-27T16:48:21;1.20;;;0.90;;
10801;SDS011;5453;50.852;7.102;2022-09-27T16:50:53;2.45;;;0.90;;
10801;SDS011;5453;50.852;7.102;2022-09-27T16:53:44;1.70;;;0.90;;
10801;SDS011;5453;50.852;7.102;2022-09-27T16:56:16;1.23;;;0.80;;
10801;SDS011;5453;50.852;7.102;2022-09-27T16:58:49;1.13;;;0.90;;